Huangpi, China
Current Conditions -  °F | °C
As of 10:00 AM on Saturday 01 Nov 2014 (Local Time) from ZHHH Reporting Station
Haze Haze  
Wind Chill: 66°   Ceiling: Unl
Heat Index: 66°   Visibility: 2.1mi
Dew Point: 57°   Wind: 7mph
Humidity: 73%   Direction: 20°NNE
Pressure: 30.12"   Gusts: NA
Location:  30.87°N, 114.36°E
Report Text: ZHHH 010200Z 02003MPS 340V060 3500 HZ NSC 19/14 Q1020 NOSIG
Loading
Personal Weather Stations






























Interactive Weather Map
Tropical Storm Tracking
New forecast layout! Learn more

10-Day Weather Forecast

Advertisements
Track Severe Weather on mobile